TimeEDT,TemperatureF,Dew PointF,Humidity,Sea Level PressureIn,VisibilityMPH,Wind Direction,Wind SpeedMPH,Gust SpeedMPH,PrecipitationIn,Events,Conditions,WindDirDegrees,DateUTC
12:53 AM,66.0,55.9,70,29.88,10.0,SE,4.6,-,N/A,,Clear,130,2014-06-09 04:53:00
1:53 AM,66.0,55.9,70,29.87,10.0,SE,3.5,-,N/A,,Clear,140,2014-06-09 05:53:00
2:53 AM,66.0,57.9,75,29.89,10.0,Calm,Calm,-,0.00,Rain,Light Rain,0,2014-06-09 06:53:00
3:53 AM,64.0,61.0,90,29.90,10.0,Calm,Calm,-,0.01,,Overcast,0,2014-06-09 07:53:00
4:53 AM,64.9,61.0,87,29.91,10.0,Calm,Calm,-,0.01,Rain,Light Rain,0,2014-06-09 08:53:00
5:53 AM,64.0,61.0,90,29.94,5.0,Calm,Calm,-,0.02,Rain,Light Rain,0,2014-06-09 09:53:00
6:53 AM,64.0,61.0,90,29.94,10.0,SSE,3.5,-,0.05,Rain,Light Rain,150,2014-06-09 10:53:00
7:53 AM,64.0,61.0,90,29.94,10.0,East,4.6,-,0.03,Rain,Light Rain,90,2014-06-09 11:53:00
8:53 AM,64.9,61.0,87,29.94,10.0,Calm,Calm,-,0.01,,Overcast,0,2014-06-09 12:53:00
9:53 AM,66.0,62.1,87,29.94,8.0,NE,3.5,-,N/A,,Overcast,50,2014-06-09 13:53:00
11:04 AM,66.9,62.1,84,29.95,10.0,Calm,Calm,-,N/A,,Overcast,0,2014-06-09 15:04:00
11:53 AM,66.9,60.1,79,29.94,10.0,SE,4.6,-,N/A,,Overcast,130,2014-06-09 15:53:00
12:53 PM,66.9,61.0,81,29.94,10.0,ESE,4.6,-,N/A,,Overcast,120,2014-06-09 16:53:00
1:53 PM,66.0,60.1,81,29.95,10.0,SSE,4.6,-,N/A,,Overcast,160,2014-06-09 17:53:00
4:53 PM,66.0,61.0,84,29.95,10.0,ENE,3.5,-,N/A,,Overcast,70,2014-06-09 20:53:00
5:53 PM,66.9,61.0,81,29.94,10.0,East,3.5,-,N/A,,Overcast,80,2014-06-09 21:53:00
6:53 PM,66.0,61.0,84,29.95,10.0,SE,5.8,-,N/A,,Overcast,130,2014-06-09 22:53:00
7:53 PM,66.0,61.0,84,29.95,10.0,SE,3.5,-,N/A,,Overcast,130,2014-06-09 23:53:00
8:53 PM,64.9,61.0,87,29.95,10.0,Calm,Calm,-,0.00,,Overcast,0,2014-06-10 00:53:00
9:53 PM,64.0,61.0,90,29.96,10.0,Calm,Calm,-,N/A,,Overcast,0,2014-06-10 01:53:00
10:53 PM,64.9,61.0,87,29.97,10.0,Calm,Calm,-,N/A,,Overcast,0,2014-06-10 02:53:00
11:53 PM,64.0,61.0,90,29.96,8.0,Calm,Calm,-,0.00,Rain,Light Rain,0,2014-06-10 03:53:00